Aviation Digital Data Service (ADDS)

Output produced by METARs form (0043 UTC 18 November 2017)
found at http://aviationweather.gov/adds/metars/
 
KAND 172320Z 1800/1824 12003KT P6SM FEW250 
     FM181100 VRB02KT P6SM SCT025 BKN120 
     FM181500 20006KT P6SM BKN025 
     FM181900 21009G17KT P6SM BKN025 
     FM182100 21010G18KT P6SM BKN040